Time;durP1;ratioP1;P1;durP2;ratioP2;P2;SDS_P1;SDS_P2;PMS_P1;PMS_P2;Temp;Humidity;BMP_temperature;BMP_pressure;BME280_temperature;BME280_humidity;BME280_pressure;Samples;Min_cycle;Max_cycle;Signal;HPM_P1;HPM_P2
2021/04/05 00:00:33;;;;;;;21.75;9.88;;;3.80;99.90;;;;;;3566350;40;20072;-70
2021/04/05 00:02:59;;;;;;;20.58;11.05;;;3.80;99.90;;;;;;3568037;40;20037;-71
2021/04/05 00:05:35;;;;;;;18.50;10.15;;;3.90;99.90;;;;;;3569899;40;20025;-70
2021/04/05 00:08:00;;;;;;;18.25;9.88;;;3.90;99.90;;;;;;3564304;40;20491;-70
2021/04/05 00:10:46;;;;;;;22.90;9.70;;;3.90;99.90;;;;;;3568236;40;20041;-70
2021/04/05 00:13:13;;;;;;;;;;;4.00;99.90;;;;;;3562833;40;20030;-71
2021/04/05 00:15:39;;;;;;;23.05;9.48;;;3.90;99.90;;;;;;3563093;40;19941;-70
2021/04/05 00:18:05;;;;;;;22.00;9.88;;;4.00;99.90;;;;;;3567710;40;20142;-71
2021/04/05 00:20:42;;;;;;;17.35;8.80;;;4.10;99.90;;;;;;3570714;40;20033;-70
2021/04/05 00:23:08;;;;;;;16.33;9.43;;;4.10;99.90;;;;;;3568389;40;20041;-71
2021/04/05 00:25:34;;;;;;;16.02;9.55;;;4.10;99.90;;;;;;3566239;40;20512;-70
2021/04/05 00:28:01;;;;;;;15.32;8.80;;;4.10;99.90;;;;;;3564588;40;20029;-70
2021/04/05 00:30:31;;;;;;;20.48;9.40;;;4.00;99.90;;;;;;3563896;40;20037;-70
2021/04/05 00:32:57;;;;;;;18.38;9.15;;;4.00;99.90;;;;;;3567322;40;20053;-70
2021/04/05 00:35:25;;;;;;;17.83;9.45;;;3.90;99.90;;;;;;3570403;40;20097;-70
2021/04/05 00:37:52;;;;;;;19.55;8.98;;;3.90;99.90;;;;;;3563750;40;20042;-70
2021/04/05 00:40:22;;;;;;;17.20;9.10;;;3.90;99.90;;;;;;3566186;40;20040;-70
2021/04/05 00:42:48;;;;;;;15.48;8.40;;;3.90;99.90;;;;;;3570110;40;20029;-70
2021/04/05 00:45:16;;;;;;;18.05;8.77;;;4.00;99.90;;;;;;3571688;40;20063;-70
2021/04/05 00:47:44;;;;;;;17.40;8.73;;;3.90;99.90;;;;;;3571009;40;20034;-70
2021/04/05 00:50:13;;;;;;;18.83;8.30;;;3.90;99.90;;;;;;3566789;40;20037;-71
2021/04/05 00:52:39;;;;;;;16.52;8.23;;;3.90;99.90;;;;;;3563991;40;20045;-71
2021/04/05 00:55:07;;;;;;;28.20;9.43;;;3.80;99.90;;;;;;3564163;40;20042;-70
2021/04/05 00:57:36;;;;;;;17.83;9.60;;;3.90;99.90;;;;;;3566572;40;20139;-70
2021/04/05 01:00:29;;;;;;;17.83;8.65;;;4.00;99.90;;;;;;3569623;40;20746;-70
2021/04/05 01:02:55;;;;;;;16.27;8.40;;;4.10;99.90;;;;;;3568647;40;20040;-70
2021/04/05 01:05:21;;;;;;;18.50;9.40;;;4.00;99.90;;;;;;3564261;40;20464;-70
2021/04/05 01:07:47;;;;;;;20.92;8.80;;;4.00;99.90;;;;;;3561976;40;20041;-70
2021/04/05 01:10:14;;;;;;;18.00;8.20;;;4.00;99.90;;;;;;3559368;40;20048;-70
2021/04/05 01:12:40;;;;;;;18.63;8.75;;;4.00;99.90;;;;;;3561730;40;20040;-70
2021/04/05 01:15:12;;;;;;;16.50;8.80;;;4.00;99.90;;;;;;3564561;40;20049;-70
2021/04/05 01:17:38;;;;;;;17.33;8.70;;;4.00;99.90;;;;;;3567470;40;20033;-70
2021/04/05 01:20:11;;;;;;;19.27;9.05;;;3.90;99.90;;;;;;3566834;40;20481;-70
2021/04/05 01:22:38;;;;;;;16.85;8.75;;;3.90;99.90;;;;;;3561891;40;20139;-70
2021/04/05 01:25:08;;;;;;;18.10;8.73;;;3.90;99.90;;;;;;3566386;40;20730;-71
2021/04/05 01:27:34;;;;;;;17.02;8.95;;;3.90;99.90;;;;;;3559310;40;20041;-70
2021/04/05 01:30:00;;;;;;;19.73;9.88;;;3.90;99.90;;;;;;3561775;40;20033;-70
2021/04/05 01:32:26;;;;;;;18.38;9.32;;;3.90;99.90;;;;;;3565323;40;20033;-70
2021/04/05 01:34:52;;;;;;;21.13;10.60;;;3.80;99.90;;;;;;3567639;40;20702;-70
2021/04/05 01:37:17;;;;;;;18.33;9.50;;;3.80;99.90;;;;;;3564887;40;20912;-70
2021/04/05 01:39:43;;;;;;;19.42;10.07;;;3.80;99.90;;;;;;3560826;40;20038;-70
2021/04/05 01:42:09;;;;;;;21.33;9.88;;;3.70;99.90;;;;;;3559306;40;20134;-70
2021/04/05 01:44:37;;;;;;;28.20;10.63;;;3.70;99.90;;;;;;3559381;40;20049;-70
2021/04/05 01:47:03;;;;;;;20.15;10.13;;;3.70;99.90;;;;;;3561537;40;20088;-70
2021/04/05 01:49:29;;;;;;;20.00;9.55;;;3.80;99.90;;;;;;3565603;40;20081;-70
2021/04/05 01:51:55;;;;;;;18.48;10.50;;;3.80;99.90;;;;;;3567076;40;20793;-70
2021/04/05 01:54:21;;;;;;;20.75;9.90;;;3.80;99.90;;;;;;3564714;40;20053;-70
2021/04/05 01:56:47;;;;;;;20.77;10.18;;;3.70;99.90;;;;;;3560495;40;20045;-71
2021/04/05 01:59:13;;;;;;;21.13;10.35;;;3.80;99.90;;;;;;3558990;40;20130;-70
2021/04/05 02:01:39;;;;;;;23.77;11.68;;;3.80;99.90;;;;;;3560099;40;20057;-70
2021/04/05 02:04:06;;;;;;;27.05;11.65;;;3.70;99.90;;;;;;3562539;40;20417;-71
2021/04/05 02:06:35;;;;;;;27.30;11.10;;;3.70;99.90;;;;;;3566061;40;20052;-70
2021/04/05 02:09:02;;;;;;;24.90;11.13;;;3.70;99.90;;;;;;3566265;40;20048;-70
2021/04/05 02:11:36;;;;;;;26.35;11.40;;;3.70;99.90;;;;;;3563379;40;20417;-70
2021/04/05 02:14:05;;;;;;;22.27;11.70;;;3.70;99.90;;;;;;3560286;40;20543;-71
2021/04/05 02:16:30;;;;;;;23.20;11.90;;;3.70;99.90;;;;;;3557089;40;20049;-71
2021/04/05 02:18:58;;;;;;;24.60;11.20;;;3.70;99.90;;;;;;3561108;40;20128;-71
2021/04/05 02:21:25;;;;;;;23.83;10.70;;;3.70;99.90;;;;;;3563611;40;20037;-70
2021/04/05 02:23:53;;;;;;;25.17;11.07;;;3.60;99.90;;;;;;3565504;40;20038;-70
2021/04/05 02:26:25;;;;;;;24.67;10.63;;;3.60;99.90;;;;;;3563058;40;20135;-71
2021/04/05 02:28:59;;;;;;;21.90;9.95;;;3.60;99.90;;;;;;3562901;40;20033;-70
2021/04/05 02:31:25;;;;;;;25.30;11.63;;;3.70;99.90;;;;;;3559339;40;20041;-71
2021/04/05 02:33:54;;;;;;;21.92;10.23;;;3.60;99.90;;;;;;3559325;40;20414;-71
2021/04/05 02:36:23;;;;;;;22.45;10.43;;;3.70;99.90;;;;;;3564909;40;20354;-70
2021/04/05 02:38:59;;;;;;;25.40;10.55;;;3.70;99.90;;;;;;3560624;40;20105;-71
2021/04/05 02:41:28;;;;;;;19.00;10.10;;;3.60;99.90;;;;;;3565613;40;20167;-71
2021/04/05 02:43:55;;;;;;;27.02;10.73;;;3.60;99.90;;;;;;3563536;40;20041;-71
2021/04/05 02:46:27;;;;;;;20.23;10.23;;;3.60;99.90;;;;;;3561149;40;20321;-70
2021/04/05 02:48:55;;;;;;;19.75;9.75;;;3.60;99.90;;;;;;3557137;40;20045;-70
2021/04/05 02:51:21;;;;;;;18.38;9.45;;;3.60;99.90;;;;;;3561294;40;20029;-71
2021/04/05 02:53:51;;;;;;;23.52;10.07;;;3.60;99.90;;;;;;3563758;40;20116;-71
2021/04/05 02:56:18;;;;;;;26.40;10.68;;;3.60;99.90;;;;;;3572256;40;20034;-70
2021/04/05 02:58:49;;;;;;;25.63;10.98;;;3.60;99.90;;;;;;3563918;40;20127;-71
2021/04/05 03:01:15;;;;;;;28.83;12.07;;;3.70;99.90;;;;;;3562297;40;20648;-70
2021/04/05 03:03:43;;;;;;;24.05;10.80;;;3.60;99.90;;;;;;3558161;40;20037;-71
2021/04/05 03:06:13;;;;;;;28.15;11.18;;;3.70;99.90;;;;;;3557877;40;20048;-70
2021/04/05 03:08:39;;;;;;;27.90;10.68;;;3.70;99.90;;;;;;3561596;40;20401;-70
2021/04/05 03:11:05;;;;;;;26.38;10.75;;;3.70;99.90;;;;;;3562893;40;20116;-71
2021/04/05 03:13:34;;;;;;;23.80;10.70;;;3.70;99.90;;;;;;3566317;40;20500;-70
2021/04/05 03:16:03;;;;;;;21.73;10.98;;;3.70;99.90;;;;;;3564362;40;20041;-70
2021/04/05 03:18:31;;;;;;;26.13;11.73;;;3.80;99.90;;;;;;3563555;40;20137;-71
2021/04/05 03:20:58;;;;;;;27.30;11.48;;;3.80;99.90;;;;;;3565014;40;20041;-70
2021/04/05 03:23:24;;;;;;;25.88;11.82;;;3.80;99.90;;;;;;3566082;40;20708;-70
2021/04/05 03:25:49;;;;;;;27.92;13.35;;;3.90;99.90;;;;;;3564146;40;20037;-71
2021/04/05 03:28:17;;;;;;;27.92;12.77;;;3.90;99.90;;;;;;3558825;40;20041;-70
2021/04/05 03:31:02;;;;;;;31.13;13.60;;;3.90;99.90;;;;;;3559491;40;20693;-70
2021/04/05 03:33:37;;;;;;;31.33;13.43;;;3.90;99.90;;;;;;3563738;40;20041;-70
2021/04/05 03:36:16;;;;;;;28.08;13.85;;;3.90;99.90;;;;;;3561265;40;20325;-71
2021/04/05 03:38:42;;;;;;;34.28;14.77;;;4.00;99.90;;;;;;3575864;40;20088;-71
2021/04/05 03:41:33;;;;;;;42.22;16.05;;;4.00;99.90;;;;;;3567190;40;20033;-70
2021/04/05 03:44:09;;;;;;;29.50;13.75;;;4.10;99.90;;;;;;3561748;40;20057;-71
2021/04/05 03:46:38;;;;;;;31.27;13.95;;;4.20;99.90;;;;;;3558794;40;20046;-71
2021/04/05 03:49:28;;;;;;;33.25;15.60;;;4.30;99.90;;;;;;3567434;40;20132;-70
2021/04/05 03:52:28;;;;;;;33.55;15.45;;;4.30;99.90;;;;;;3566684;40;20172;-70
2021/04/05 03:55:03;;;;;;;32.53;15.32;;;4.20;99.90;;;;;;3563110;40;20045;-71
2021/04/05 03:57:34;;;;;;;33.65;15.93;;;4.10;99.90;;;;;;3565982;40;20044;-70
2021/04/05 04:00:08;;;;;;;40.83;17.35;;;4.10;99.90;;;;;;3564562;40;20049;-71
2021/04/05 04:02:48;;;;;;;37.88;17.17;;;4.10;99.90;;;;;;3562062;40;20087;-70
2021/04/05 04:05:24;;;;;;;34.50;17.08;;;4.10;99.90;;;;;;3569959;40;20776;-70
2021/04/05 04:08:02;;;;;;;45.85;18.75;;;4.20;99.90;;;;;;3568047;40;20042;-70
2021/04/05 04:10:30;;;;;;;43.08;18.20;;;4.20;99.90;;;;;;3570679;40;20611;-71
2021/04/05 04:12:58;;;;;;;45.53;20.08;;;4.30;99.90;;;;;;3562460;40;20060;-72
2021/04/05 04:15:26;;;;;;;42.22;19.10;;;4.30;99.90;;;;;;3564178;40;20053;-69
2021/04/05 04:17:52;;;;;;;69.05;28.60;;;4.30;99.90;;;;;;3559723;40;20164;-68
2021/04/05 04:20:18;;;;;;;64.07;28.67;;;4.20;99.90;;;;;;3564781;40;20065;-69
2021/04/05 04:22:46;;;;;;;41.22;19.83;;;4.30;99.90;;;;;;3570194;40;20416;-71
2021/04/05 04:25:13;;;;;;;49.55;22.88;;;4.30;99.90;;;;;;3569188;40;20753;-70
2021/04/05 04:27:45;;;;;;;45.58;21.90;;;4.40;99.90;;;;;;3570755;40;20033;-70
2021/04/05 04:30:31;;;;;;;45.65;20.48;;;4.40;99.90;;;;;;3569405;40;20033;-69
2021/04/05 04:33:01;;;;;;;43.10;20.15;;;4.40;99.90;;;;;;3568127;40;20037;-71
2021/04/05 04:35:27;;;;;;;51.88;21.27;;;4.40;99.90;;;;;;3565720;40;20083;-72
2021/04/05 04:37:53;;;;;;;44.22;21.65;;;4.50;99.90;;;;;;3566786;40;20114;-69
2021/04/05 04:40:26;;;;;;;64.85;26.85;;;4.50;99.90;;;;;;3563335;40;20042;-69
2021/04/05 04:42:56;;;;;;;53.80;21.25;;;4.60;99.90;;;;;;3567521;40;20056;-71
2021/04/05 04:45:21;;;;;;;48.08;21.67;;;4.60;99.90;;;;;;3569358;40;20037;-71
2021/04/05 04:47:55;;;;;;;48.20;21.38;;;4.60;99.90;;;;;;3565259;40;20046;-71
2021/04/05 04:50:22;;;;;;;49.40;21.75;;;4.70;99.90;;;;;;3565580;40;20049;-71
2021/04/05 04:52:48;;;;;;;48.75;22.40;;;4.60;99.90;;;;;;3567382;40;20410;-71
2021/04/05 04:55:17;;;;;;;52.55;21.90;;;4.70;99.90;;;;;;3568210;40;20056;-71
2021/04/05 04:57:44;;;;;;;50.35;21.77;;;4.70;99.90;;;;;;3567009;40;20048;-71
2021/04/05 05:00:10;;;;;;;51.35;21.55;;;4.80;99.90;;;;;;3558712;40;20037;-70
2021/04/05 05:02:40;;;;;;;50.28;22.08;;;5.00;99.90;;;;;;3567026;40;20034;-69
2021/04/05 05:05:07;;;;;;;60.88;22.45;;;5.00;99.90;;;;;;3571252;40;20434;-69
2021/04/05 05:07:35;;;;;;;44.20;20.92;;;5.00;99.90;;;;;;3569109;40;20040;-70
2021/04/05 05:10:02;;;;;;;46.65;21.13;;;5.10;99.90;;;;;;3567350;40;20037;-70
2021/04/05 05:12:28;;;;;;;48.45;22.35;;;5.00;99.90;;;;;;3567515;40;20294;-70
2021/04/05 05:14:54;;;;;;;47.65;20.77;;;5.10;99.90;;;;;;3566490;40;20076;-70
2021/04/05 05:17:21;;;;;;;47.60;20.27;;;5.10;99.90;;;;;;3565796;40;20041;-70
2021/04/05 05:19:47;;;;;;;49.80;21.58;;;5.10;99.90;;;;;;3564646;40;20095;-70
2021/04/05 05:22:15;;;;;;;51.72;19.92;;;5.20;99.90;;;;;;3563508;40;20038;-70
2021/04/05 05:24:44;;;;;;;45.35;19.70;;;5.20;99.90;;;;;;3568578;40;20641;-70
2021/04/05 05:27:11;;;;;;;48.50;19.85;;;5.20;99.90;;;;;;3567799;40;20045;-70
2021/04/05 05:29:38;;;;;;;45.33;19.33;;;5.30;99.90;;;;;;3563037;40;20045;-70
2021/04/05 05:32:05;;;;;;;42.75;18.55;;;5.40;99.90;;;;;;3566002;40;20485;-70
2021/04/05 05:34:31;;;;;;;45.63;20.45;;;5.40;99.90;;;;;;3566821;40;20711;-69
2021/04/05 05:36:57;;;;;;;43.22;20.20;;;5.50;99.90;;;;;;3567459;40;20055;-69
2021/04/05 05:39:23;;;;;;;53.30;20.33;;;5.60;99.90;;;;;;3566267;40;20415;-70
2021/04/05 05:42:25;;;;;;;49.70;20.52;;;5.70;99.90;;;;;;3562066;40;20686;-70
2021/04/05 05:45:06;;;;;;;37.80;18.42;;;5.70;99.90;;;;;;3567390;40;20759;-70
2021/04/05 05:47:49;;;;;;;60.88;26.25;;;5.80;99.90;;;;;;3562920;40;20041;-71
2021/04/05 05:50:40;;;;;;;54.33;26.15;;;5.90;99.90;;;;;;3559094;40;20946;-70
2021/04/05 05:53:18;;;;;;;45.33;20.77;;;5.90;99.90;;;;;;3565816;40;20045;-70
2021/04/05 05:56:18;;;;;;;48.53;27.92;;;5.90;99.90;;;;;;3569745;40;20040;-70
2021/04/05 05:58:46;;;;;;;56.33;28.20;;;6.00;99.90;;;;;;3559660;40;20064;-69
2021/04/05 06:01:43;;;;;;;56.60;25.98;;;5.90;99.90;;;;;;3562456;40;20052;-69
2021/04/05 06:04:46;;;;;;;53.97;27.52;;;6.00;99.90;;;;;;3558192;40;20138;-69
2021/04/05 06:07:41;;;;;;;55.35;27.92;;;6.10;99.90;;;;;;3567818;40;20044;-70
2021/04/05 06:10:20;;;;;;;46.20;20.90;;;6.20;99.90;;;;;;3563993;40;20075;-70
2021/04/05 06:13:11;;;;;;;47.88;19.05;;;6.20;99.90;;;;;;3562971;40;20205;-62
2021/04/05 06:16:11;;;;;;;45.00;19.50;;;6.20;99.90;;;;;;3559667;40;20871;-62
2021/04/05 06:18:57;;;;;;;45.78;18.77;;;6.30;99.90;;;;;;3564269;40;20061;-63
2021/04/05 06:21:30;;;;;;;;;;;6.40;99.90;;;;;;3565757;40;20083;-63
2021/04/05 06:24:01;;;;;;;38.83;17.92;;;6.40;99.90;;;;;;3566466;40;19928;-63
2021/04/05 06:26:46;;;;;;;45.85;19.88;;;6.60;99.90;;;;;;3562593;40;20048;-62
2021/04/05 06:29:33;;;;;;;46.58;21.25;;;6.70;99.90;;;;;;3565859;40;20068;-62
2021/04/05 06:32:41;;;;;;;50.30;18.73;;;6.70;99.90;;;;;;3563378;40;20057;-62
2021/04/05 06:35:32;;;;;;;46.28;19.95;;;6.60;99.90;;;;;;3565156;40;20044;-62
2021/04/05 06:38:10;;;;;;;41.35;18.48;;;6.60;99.90;;;;;;3572529;40;20057;-62
2021/04/05 06:40:38;;;;;;;40.80;19.75;;;6.60;99.90;;;;;;3564308;40;20029;-64
2021/04/05 06:43:35;;;;;;;43.22;19.27;;;6.60;99.90;;;;;;3568742;40;20114;-62
2021/04/05 06:46:28;;;;;;;39.78;18.15;;;6.70;99.90;;;;;;3570178;40;20710;-61
2021/04/05 06:49:01;;;;;;;41.08;19.20;;;6.80;99.90;;;;;;3562973;40;20107;-62
2021/04/05 06:51:51;;;;;;;43.30;17.75;;;6.80;99.90;;;;;;3568828;40;20064;-62
2021/04/05 06:54:51;;;;;;;45.75;18.17;;;6.80;99.90;;;;;;3567524;40;20154;-62
2021/04/05 06:57:18;;;;;;;38.25;17.50;;;6.80;99.90;;;;;;3566936;40;20081;-62
2021/04/05 06:59:56;;;;;;;36.33;17.85;;;6.80;99.90;;;;;;3567519;40;20504;-62
2021/04/05 07:02:53;;;;;;;36.63;17.75;;;6.80;99.90;;;;;;3565440;40;20107;-61
2021/04/05 07:05:22;;;;;;;46.67;18.13;;;6.90;99.90;;;;;;3560314;40;20583;-62
2021/04/05 07:07:59;;;;;;;35.85;17.90;;;7.00;99.90;;;;;;3560993;40;20045;-62
2021/04/05 07:10:30;;;;;;;46.72;19.05;;;6.90;99.90;;;;;;3563468;40;20052;-62
2021/04/05 07:12:58;;;;;;;46.65;18.30;;;6.80;99.90;;;;;;3568690;40;20048;-62
2021/04/05 07:15:39;;;;;;;48.33;19.23;;;6.60;99.90;;;;;;3561617;40;20093;-62
2021/04/05 07:18:37;;;;;;;43.95;18.67;;;6.50;99.90;;;;;;3564749;40;20114;-62
2021/04/05 07:21:32;;;;;;;45.28;19.83;;;6.50;99.90;;;;;;3564179;40;20529;-61
2021/04/05 07:24:08;;;;;;;45.72;18.65;;;6.40;99.90;;;;;;3563415;40;20036;-63
2021/04/05 07:26:48;;;;;;;;;;;6.30;99.90;;;;;;3566705;40;20043;-62
2021/04/05 07:29:37;;;;;;;43.85;17.70;;;6.20;99.90;;;;;;3570420;40;20246;-62
2021/04/05 07:32:12;;;;;;;49.20;22.40;;;6.20;99.90;;;;;;3562943;40;20037;-61
2021/04/05 07:34:50;;;;;;;54.50;20.45;;;6.10;99.90;;;;;;3567066;40;20033;-61
2021/04/05 07:37:33;;;;;;;54.55;23.50;;;6.10;99.90;;;;;;3558285;40;20064;-62
2021/04/05 07:40:20;;;;;;;42.13;20.58;;;6.10;99.90;;;;;;3567607;40;20041;-62
2021/04/05 07:42:51;;;;;;;53.53;23.33;;;6.10;99.90;;;;;;3561177;40;20045;-61
2021/04/05 07:45:32;;;;;;;66.20;33.20;;;6.10;99.90;;;;;;3567484;40;20150;-63
2021/04/05 07:48:23;;;;;;;49.40;21.05;;;6.10;99.90;;;;;;3561759;40;20041;-62
2021/04/05 07:51:10;;;;;;;55.85;21.88;;;6.00;99.90;;;;;;3566824;40;20076;-62
2021/04/05 07:54:01;;;;;;;52.30;24.55;;;5.90;99.90;;;;;;3563664;40;20037;-63
2021/04/05 07:57:03;;;;;;;53.15;21.42;;;5.90;99.90;;;;;;3564780;40;20047;-62
2021/04/05 07:59:55;;;;;;;58.97;22.92;;;5.90;99.90;;;;;;3565601;40;20048;-62
2021/04/05 08:03:00;;;;;;;55.63;22.38;;;5.80;99.90;;;;;;3560001;40;20450;-62
2021/04/05 08:05:57;;;;;;;53.92;22.60;;;5.80;99.90;;;;;;3564775;40;20044;-62
2021/04/05 08:08:29;;;;;;;50.65;22.02;;;5.80;99.90;;;;;;3566148;40;20456;-61
2021/04/05 08:11:21;;;;;;;44.15;21.17;;;5.70;99.90;;;;;;3566868;40;20053;-63
2021/04/05 08:13:55;;;;;;;56.35;22.27;;;5.60;99.90;;;;;;3569883;40;20033;-62
2021/04/05 08:17:01;;;;;;;53.90;22.17;;;5.60;99.90;;;;;;3566873;40;20575;-62
2021/04/05 08:20:00;;;;;;;58.92;23.20;;;5.60;99.90;;;;;;3567114;40;20052;-62
2021/04/05 08:22:43;;;;;;;84.55;36.88;;;5.50;99.90;;;;;;3564566;40;20057;-63
2021/04/05 08:25:49;;;;;;;73.65;27.20;;;5.50;99.90;;;;;;3569363;40;20033;-63
2021/04/05 08:28:38;;;;;;;69.68;26.77;;;5.40;99.90;;;;;;3572300;40;20784;-63
2021/04/05 08:31:30;;;;;;;65.70;25.55;;;5.50;99.90;;;;;;3563131;40;20747;-63
2021/04/05 08:34:08;;;;;;;67.43;26.48;;;5.40;99.90;;;;;;3565639;40;20592;-62
2021/04/05 08:36:34;;;;;;;65.43;24.80;;;5.40;99.90;;;;;;3567144;40;20636;-63
2021/04/05 08:39:13;;;;;;;75.32;26.52;;;5.30;99.90;;;;;;3565194;40;20700;-62
2021/04/05 08:42:16;;;;;;;66.30;26.20;;;5.30;99.90;;;;;;3563976;40;20045;-63
2021/04/05 08:45:14;;;;;;;65.25;24.67;;;5.20;99.90;;;;;;3563520;40;20039;-62
2021/04/05 08:47:42;;;;;;;70.80;28.20;;;5.20;99.90;;;;;;3561637;40;20146;-63
2021/04/05 08:50:11;;;;;;;62.22;25.85;;;5.30;99.90;;;;;;3568278;40;20294;-63
2021/04/05 08:52:44;;;;;;;80.40;29.50;;;5.30;99.90;;;;;;3562820;40;20723;-64
2021/04/05 08:55:18;;;;;;;73.35;27.42;;;5.30;99.90;;;;;;3563297;40;20037;-62
2021/04/05 08:58:08;;;;;;;69.63;27.08;;;5.30;99.90;;;;;;3565896;40;20041;-63
2021/04/05 09:00:47;;;;;;;79.38;30.38;;;5.40;99.90;;;;;;3567795;40;20035;-61
2021/04/05 09:03:21;;;;;;;77.63;28.73;;;5.40;99.90;;;;;;3566963;40;20061;-62
2021/04/05 09:05:49;;;;;;;76.55;31.25;;;5.30;99.90;;;;;;3567943;40;20330;-63
2021/04/05 09:08:19;;;;;;;79.25;31.60;;;5.30;99.90;;;;;;3559390;40;20130;-63
2021/04/05 09:10:58;;;;;;;79.50;31.95;;;5.30;99.90;;;;;;3563655;40;20040;-63
2021/04/05 09:13:51;;;;;;;91.22;32.63;;;5.30;99.90;;;;;;3566046;40;20044;-64
2021/04/05 09:16:32;;;;;;;71.43;26.98;;;5.30;99.90;;;;;;3563622;40;20045;-64
2021/04/05 09:19:34;;;;;;;84.05;29.83;;;5.30;99.90;;;;;;3568666;40;20033;-64
2021/04/05 09:22:25;;;;;;;57.88;20.75;;;5.20;99.90;;;;;;3566659;40;20191;-64
2021/04/05 09:25:05;;;;;;;48.35;19.58;;;5.20;99.90;;;;;;3556971;40;20049;-64
2021/04/05 09:27:39;;;;;;;16.42;6.13;;;5.20;99.90;;;;;;3565332;40;20046;-64
2021/04/05 09:30:30;;;;;;;15.27;7.75;;;5.20;99.90;;;;;;3567871;40;20107;-64
2021/04/05 09:33:05;;;;;;;9.73;4.72;;;5.00;99.90;;;;;;3568032;40;20033;-64
2021/04/05 09:36:06;;;;;;;14.68;6.90;;;4.80;99.90;;;;;;3566259;40;20299;-63
2021/04/05 09:38:56;;;;;;;6.38;3.05;;;4.80;99.90;;;;;;3570051;40;20032;-64
2021/04/05 09:41:55;;;;;;;7.55;3.45;;;4.80;99.90;;;;;;3566543;40;20047;-64
2021/04/05 09:45:00;;;;;;;5.72;2.28;;;4.80;99.90;;;;;;3564024;40;20618;-64
2021/04/05 09:47:53;;;;;;;4.38;2.10;;;4.80;99.90;;;;;;3565749;40;20647;-64
2021/04/05 09:50:47;;;;;;;2.10;1.60;;;4.70;99.90;;;;;;3558479;40;20478;-63
2021/04/05 09:53:40;;;;;;;2.85;1.73;;;4.60;99.90;;;;;;3563082;40;20155;-63
2021/04/05 09:56:09;;;;;;;3.03;1.65;;;4.60;99.90;;;;;;3570956;40;20102;-64
2021/04/05 09:58:51;;;;;;;2.85;1.45;;;4.60;99.90;;;;;;3564993;40;20493;-64
2021/04/05 10:01:24;;;;;;;10.55;6.10;;;4.70;99.90;;;;;;3564550;40;20120;-64
2021/04/05 10:04:20;;;;;;;4.10;1.58;;;4.70;99.90;;;;;;3568516;40;20044;-64
2021/04/05 10:06:47;;;;;;;3.58;1.83;;;4.80;99.90;;;;;;3564859;40;20052;-64
2021/04/05 10:09:13;;;;;;;8.38;3.22;;;4.80;99.90;;;;;;3564011;40;20026;-64
2021/04/05 10:11:41;;;;;;;2.65;1.02;;;4.80;99.90;;;;;;3567095;40;20037;-63
2021/04/05 10:14:10;;;;;;;2.22;1.30;;;4.90;99.90;;;;;;3566107;40;20040;-63
2021/04/05 10:16:38;;;;;;;2.20;1.45;;;4.90;99.90;;;;;;3565301;40;20517;-63
2021/04/05 10:19:11;;;;;;;2.58;1.67;;;4.90;99.90;;;;;;3565183;40;20041;-63
2021/04/05 10:21:59;;;;;;;5.63;1.98;;;5.00;99.90;;;;;;3566114;40;20025;-63
2021/04/05 10:24:25;;;;;;;5.45;2.03;;;5.20;99.90;;;;;;3564241;40;20052;-64
2021/04/05 10:26:54;;;;;;;2.53;1.70;;;5.30;99.90;;;;;;3565482;40;20670;-63
2021/04/05 10:29:25;;;;;;;2.83;1.90;;;5.40;99.90;;;;;;3562862;40;20049;-63
2021/04/05 10:31:51;;;;;;;2.65;1.85;;;5.40;99.90;;;;;;3563000;40;20042;-63
2021/04/05 10:34:21;;;;;;;3.88;2.03;;;5.40;99.90;;;;;;3564921;40;20779;-63
2021/04/05 10:36:51;;;;;;;4.60;2.38;;;5.40;99.90;;;;;;3558917;40;20067;-63
2021/04/05 10:39:16;;;;;;;3.88;2.40;;;5.60;99.90;;;;;;3562117;40;20471;-63
2021/04/05 10:41:59;;;;;;;3.05;1.90;;;5.70;99.90;;;;;;3561510;40;20048;-63
2021/04/05 10:44:29;;;;;;;2.40;1.70;;;5.70;99.90;;;;;;3561769;40;20100;-63
2021/04/05 10:47:00;;;;;;;6.82;1.83;;;5.70;99.90;;;;;;3565967;40;20049;-63
2021/04/05 10:49:31;;;;;;;4.65;1.60;;;5.70;99.90;;;;;;3564768;40;20689;-63
2021/04/05 10:52:09;;;;;;;5.00;1.90;;;5.70;99.90;;;;;;3557925;40;20052;-63
2021/04/05 10:54:43;;;;;;;3.47;1.90;;;5.60;99.90;;;;;;3561068;40;20415;-63
2021/04/05 10:57:16;;;;;;;4.63;1.83;;;5.60;99.90;;;;;;3570266;40;20053;-63
2021/04/05 10:59:49;;;;;;;4.95;2.10;;;5.70;99.90;;;;;;3563170;40;20053;-63
2021/04/05 11:02:38;;;;;;;2.03;1.42;;;5.70;99.90;;;;;;3566488;40;20036;-62
2021/04/05 11:05:06;;;;;;;3.70;2.03;;;5.70;99.90;;;;;;3563970;40;20837;-63
2021/04/05 11:07:33;;;;;;;3.97;1.90;;;5.80;99.90;;;;;;3563769;40;20033;-63
2021/04/05 11:10:03;;;;;;;3.47;1.83;;;5.60;99.90;;;;;;3565214;40;20520;-63
2021/04/05 11:12:33;;;;;;;3.42;1.90;;;5.60;99.90;;;;;;3567687;40;20703;-63
2021/04/05 11:15:02;;;;;;;3.15;1.45;;;5.40;99.90;;;;;;3566354;40;20032;-62
2021/04/05 11:17:29;;;;;;;3.95;1.27;;;5.30;99.90;;;;;;3562666;40;20330;-62
2021/04/05 11:19:56;;;;;;;4.20;1.58;;;4.90;99.90;;;;;;3564747;40;20040;-62
2021/04/05 11:22:28;;;;;;;4.60;1.58;;;4.50;99.90;;;;;;3563302;40;20053;-64
2021/04/05 11:25:04;;;;;;;4.93;1.70;;;4.30;99.90;;;;;;3567898;40;20053;-63
2021/04/05 11:27:31;;;;;;;3.22;1.60;;;4.40;99.90;;;;;;3563224;40;20078;-63
2021/04/05 11:30:02;;;;;;;6.72;1.70;;;4.70;99.90;;;;;;3564075;40;20060;-63
2021/04/05 11:32:31;;;;;;;6.05;1.45;;;5.10;99.90;;;;;;3564159;40;20037;-63
2021/04/05 11:34:58;;;;;;;4.07;1.73;;;5.40;99.90;;;;;;3564436;40;20155;-73
2021/04/05 11:37:30;;;;;;;4.53;1.45;;;5.70;99.90;;;;;;3564384;40;20055;-72
2021/04/05 11:40:02;;;;;;;2.60;1.40;;;5.80;99.90;;;;;;3563888;40;20041;-72
2021/04/05 11:42:36;;;;;;;4.15;1.50;;;5.90;99.90;;;;;;3562323;40;20149;-71
2021/04/05 11:45:04;;;;;;;4.13;1.40;;;6.10;99.90;;;;;;3559632;40;20056;-73
2021/04/05 11:47:36;;;;;;;4.25;1.30;;;6.10;99.90;;;;;;3564799;40;20041;-71
2021/04/05 11:50:12;;;;;;;4.15;1.10;;;6.10;99.90;;;;;;3564255;40;20069;-71
2021/04/05 11:52:43;;;;;;;3.88;1.15;;;6.00;99.90;;;;;;3566256;40;20056;-72
2021/04/05 11:55:13;;;;;;;3.33;0.98;;;5.50;99.90;;;;;;3567010;40;20084;-72
2021/04/05 11:57:44;;;;;;;3.00;1.00;;;5.10;99.90;;;;;;3565820;40;20044;-71
2021/04/05 12:00:18;;;;;;;5.47;1.00;;;4.70;99.90;;;;;;3566078;40;20100;-75
2021/04/05 12:03:06;;;;;;;2.80;0.80;;;4.50;99.90;;;;;;3565677;40;20048;-71
2021/04/05 12:05:38;;;;;;;3.88;0.98;;;3.80;99.90;;;;;;3565610;40;20075;-72
2021/04/05 12:08:12;;;;;;;1.50;0.60;;;3.70;99.90;;;;;;3559360;40;20157;-72
2021/04/05 12:10:42;;;;;;;2.00;0.75;;;3.90;99.90;;;;;;3564787;40;20037;-71
2021/04/05 12:13:27;;;;;;;1.10;0.52;;;4.00;99.90;;;;;;3567597;40;20401;-72
2021/04/05 12:16:00;;;;;;;1.53;0.60;;;4.10;99.90;;;;;;3559645;40;20137;-71
2021/04/05 12:18:27;;;;;;;2.10;0.80;;;4.10;99.90;;;;;;3565513;40;20184;-72
2021/04/05 12:21:14;;;;;;;4.68;2.17;;;4.20;99.90;;;;;;3562982;40;20032;-71
2021/04/05 12:23:41;;;;;;;4.15;1.30;;;4.30;99.90;;;;;;3562805;40;20174;-71
2021/04/05 12:26:08;;;;;;;4.40;1.60;;;4.50;99.90;;;;;;3564193;40;20072;-71
2021/04/05 12:28:40;;;;;;;2.83;0.70;;;4.80;99.90;;;;;;3563695;40;20037;-71
2021/04/05 12:31:07;;;;;;;0.50;0.50;;;5.10;99.90;;;;;;3563839;40;20026;-71
2021/04/05 12:33:35;;;;;;;1.27;0.70;;;5.40;99.90;;;;;;3564586;40;20043;-71
2021/04/05 12:36:03;;;;;;;3.55;0.70;;;6.00;99.90;;;;;;3567075;40;20041;-71
2021/04/05 12:38:37;;;;;;;2.28;0.70;;;6.60;99.90;;;;;;3565979;40;20029;-71
2021/04/05 12:41:08;;;;;;;2.75;1.10;;;7.00;99.90;;;;;;3567152;40;20127;-72
2021/04/05 12:43:38;;;;;;;3.00;0.93;;;7.10;99.90;;;;;;3565150;40;20713;-70
2021/04/05 12:46:08;;;;;;;3.85;2.25;;;7.10;99.90;;;;;;3566702;40;20507;-71
2021/04/05 12:48:36;;;;;;;8.65;5.75;;;6.80;99.90;;;;;;3570001;40;20050;-70
2021/04/05 12:51:05;;;;;;;1.95;1.10;;;6.60;99.90;;;;;;3559743;40;20063;-70
2021/04/05 12:53:34;;;;;;;8.07;4.95;;;6.60;99.90;;;;;;3564930;40;20684;-71
2021/04/05 12:56:00;;;;;;;4.25;1.10;;;6.60;99.90;;;;;;3564801;40;20056;-70
2021/04/05 12:58:32;;;;;;;7.93;5.00;;;6.60;99.90;;;;;;3567538;40;20041;-70
2021/04/05 13:00:58;;;;;;;1.77;1.20;;;6.60;99.90;;;;;;3569108;40;20025;-71
2021/04/05 13:03:35;;;;;;;3.83;1.58;;;6.50;99.90;;;;;;3566271;40;20071;-71
2021/04/05 13:06:08;;;;;;;10.57;4.13;;;6.40;99.90;;;;;;3562906;40;20033;-71
2021/04/05 13:08:49;;;;;;;45.95;21.33;;;6.20;99.90;;;;;;3564421;40;20033;-71
2021/04/05 13:11:35;;;;;;;10.65;4.43;;;6.50;99.90;;;;;;3566998;40;20334;-71
2021/04/05 13:14:15;;;;;;;2.80;0.82;;;6.50;99.90;;;;;;3566825;40;20358;-71
2021/04/05 13:16:52;;;;;;;3.00;1.15;;;6.40;99.90;;;;;;3565521;40;20041;-71
2021/04/05 13:19:22;;;;;;;1.67;0.95;;;6.50;99.90;;;;;;3564896;40;20132;-71
2021/04/05 13:21:48;;;;;;;0.95;0.70;;;6.70;99.90;;;;;;3566520;40;20072;-72
2021/04/05 13:24:29;;;;;;;0.73;0.50;;;6.90;99.90;;;;;;3566285;40;20718;-71